utilisation pie
utilisation bar
humidity graph
temperature graph
Station id: f3370e for 2 days

start:   stop:  

day time in temp out temp in RH out RH H quota rule action
2020-05-31 00:02:42 18.0 11.4 57 72 84 h 0
2020-05-31 00:03:19 18.0 11.4 57 72 84 h 0
2020-05-31 00:33:40 17.8 10.8 57 76 86 h 0
2020-05-31 01:03:52 17.6 10.5 57 77 87 h 0
2020-05-31 01:34:04 17.4 10.4 58 80 90 h 0
2020-05-31 02:04:36 17.1 10.8 58 83 97 h 0
2020-05-31 02:35:50 16.9 11.0 58 81 97 h 0
2020-05-31 03:06:02 16.8 11.2 58 81 100 h 0
2020-05-31 03:36:35 16.6 11.5 58 81 102 h 0
2020-05-31 04:07:09 16.5 11.6 58 78 99 h 0
2020-05-31 04:37:42 16.3 11.8 58 77 100 h 0
2020-05-31 05:07:54 16.1 11.8 59 76 99 h 0
2020-05-31 05:38:06 16.0 12.1 59 77 102 h 0
2020-05-31 06:08:18 15.8 12.5 60 77 105 h 0
2020-05-31 06:38:30 15.7 12.8 61 74 102 h 0
2020-05-31 07:09:03 15.6 13.6 61 72 105 h 0
2020-05-31 07:39:15 15.6 14.4 60 67 104 h 0
2020-05-31 08:09:27 15.6 15.3 59 64 107 h 0
2020-05-31 08:40:00 15.6 15.8 59 67 114 h 0
2020-05-31 09:10:33 15.8 17.0 60 64 116 h 0
2020-05-31 09:41:06 15.9 17.6 60 62 115 h 0
2020-05-31 10:11:18 16.1 18.2 60 61 116 h 0
2020-05-31 10:41:51 16.4 19.1 59 56 111 h 0
2020-05-31 11:12:03 16.6 19.4 59 55 111 h 0
2020-05-31 11:42:15 16.8 19.8 58 54 111 h 0
2020-05-31 12:12:27 17.0 20.1 57 57 120 h 0
2020-05-31 12:42:39 17.3 20.4 57 59 124 h 0
2020-05-31 13:13:12 17.6 20.6 56 58 123 h 0
2020-05-31 13:43:24 17.9 21.3 55 54 119 h 0
2020-05-31 14:13:57 18.2 21.5 53 54 123 h 0
2020-05-31 14:44:09 18.5 21.4 53 54 121 h 0
2020-05-31 15:14:42 18.7 21.2 51 53 120 h 0
2020-05-31 15:44:54 18.8 21.1 50 53 120 h 0
2020-05-31 16:15:06 19.0 21.0 51 54 120 h 0
2020-05-31 16:45:18 19.1 20.8 50 54 119 h 0
2020-05-31 17:15:51 19.1 21.0 51 51 112 h 0
2020-05-31 17:46:03 19.1 20.9 53 51 107 h 0
2020-05-31 18:16:15 19.1 20.8 53 51 106 h 0
2020-05-31 18:46:27 19.0 20.2 55 54 104 h 0
2020-05-31 19:16:39 19.0 20.0 55 55 106 h 0
2020-05-31 19:46:52 19.0 19.7 54 54 103 h 0
2020-05-31 20:17:24 19.1 19.4 53 54 103 h 0
2020-05-31 20:47:36 19.2 18.8 55 58 103 h 0
2020-05-31 21:17:49 19.2 17.6 56 62 101 h 0
2020-05-31 21:48:01 19.1 16.7 56 62 95 h 0
2020-05-31 22:18:13 19.1 16.2 57 59 88 h 0
2020-05-31 22:48:25 18.9 16.1 57 55 82 h 0
2020-05-31 23:18:57 18.9 15.6 57 58 84 h 0
2020-05-31 23:49:09 18.7 14.9 57 60 84 h 0
2020-06-01 00:19:22 18.6 14.0 57 62 82 h 0
2020-06-01 00:49:34 18.5 13.1 57 65 82 h 0
2020-06-01 01:19:46 18.3 12.2 57 69 83 h 0
2020-06-01 01:49:58 18.2 11.8 57 73 87 h 0
2020-06-01 02:20:10 17.9 11.2 57 74 86 h 0
2020-06-01 02:50:22 17.7 10.9 57 74 86 h 0
2020-06-01 03:20:35 17.5 10.6 57 74 85 h 0
2020-06-01 03:50:47 17.3 10.3 56 74 85 h 0
2020-06-01 04:21:03 17.2 10.3 56 75 88 h 0
2020-06-01 04:51:15 17.0 10.1 56 75 88 h 0
2020-06-01 05:21:27 16.8 10.5 56 78 94 h 0
2020-06-01 05:51:39 16.7 11.1 57 78 97 h 0


2020-06-01 06:58:17 CEST